createdAt,value
2023-01-19T00:00:00.570Z,1.8
2023-01-19T00:15:00.589Z,1.7
2023-01-19T00:30:00.582Z,1.5
2023-01-19T00:45:00.578Z,1.4
2023-01-19T01:00:00.674Z,1.3
2023-01-19T01:15:00.569Z,1.2
2023-01-19T01:30:00.564Z,1.1
2023-01-19T01:45:00.568Z,0.9
2023-01-19T02:00:00.572Z,0.9
2023-01-19T02:15:00.628Z,0.8
2023-01-19T02:30:00.577Z,0.8
2023-01-19T02:45:00.605Z,0.8
2023-01-19T03:00:00.622Z,0.7
2023-01-19T03:15:00.578Z,0.7
2023-01-19T03:30:00.630Z,0.7
2023-01-19T03:45:00.550Z,0.7
2023-01-19T04:00:00.580Z,0.7
2023-01-19T04:15:00.594Z,0.7
2023-01-19T04:30:00.636Z,0.7
2023-01-19T04:45:00.652Z,0.6
2023-01-19T05:00:00.597Z,0.6
2023-01-19T05:15:00.588Z,0.6
2023-01-19T05:30:00.569Z,0.5
2023-01-19T05:45:00.776Z,0.5
2023-01-19T06:00:00.626Z,0.4
2023-01-19T06:15:00.563Z,0.4
2023-01-19T06:30:00.559Z,0.4
2023-01-19T06:45:00.792Z,0.4
2023-01-19T07:00:00.612Z,0.4
2023-01-19T07:15:00.530Z,0.3
2023-01-19T07:30:00.565Z,0.3
2023-01-19T07:45:00.568Z,0.3
2023-01-19T08:00:00.591Z,0.4
2023-01-19T08:15:00.562Z,0.4
2023-01-19T08:30:00.517Z,0.4
2023-01-19T08:45:00.572Z,0.4
2023-01-19T09:00:00.668Z,0.4
2023-01-19T09:15:00.565Z,0.6
2023-01-19T09:30:00.541Z,0.8
2023-01-19T10:00:00.482Z,1.2
2023-01-19T10:15:00.404Z,1.4
2023-01-19T10:30:00.433Z,1.5
2023-01-19T10:45:00.415Z,1.6
2023-01-19T11:00:01.078Z,1.7
2023-01-19T11:15:00.659Z,1.7
2023-01-19T11:30:00.668Z,1.7
2023-01-19T11:45:00.660Z,1.7
2023-01-19T12:00:00.734Z,1.6
2023-01-19T12:15:00.680Z,1.6
2023-01-19T12:30:00.662Z,1.6
2023-01-19T12:45:00.671Z,1.6
2023-01-19T13:00:00.732Z,1.6
2023-01-19T13:15:00.925Z,1.6
2023-01-19T13:30:01.184Z,1.6
2023-01-19T13:45:00.678Z,1.6
2023-01-19T14:00:00.717Z,1.7
2023-01-19T14:15:00.751Z,1.6
2023-01-19T14:30:00.667Z,1.6
2023-01-19T14:45:00.700Z,1.5
2023-01-19T15:00:00.742Z,1.3
2023-01-19T15:15:00.703Z,1.2
2023-01-19T15:30:00.725Z,1.1
2023-01-19T15:45:00.667Z,1.0
2023-01-19T16:00:00.755Z,0.9
2023-01-19T16:15:00.686Z,0.9
2023-01-19T16:30:00.683Z,0.7
2023-01-19T16:45:00.660Z,0.5
2023-01-19T17:00:00.789Z,0.4
2023-01-19T17:15:00.646Z,0.3
2023-01-19T17:45:00.503Z,0.1
2023-01-19T18:00:00.543Z,0.0
2023-01-19T18:15:00.481Z,0.0
2023-01-19T18:30:00.456Z,-0.3
2023-01-19T18:45:00.469Z,-0.6
2023-01-19T19:00:00.551Z,-0.8
2023-01-19T19:15:00.482Z,-0.8
2023-01-19T19:30:00.499Z,-0.8
2023-01-19T19:45:00.484Z,-0.8
2023-01-19T20:00:00.539Z,-0.8
2023-01-19T20:15:00.505Z,-0.7
2023-01-19T20:30:00.495Z,-0.7
2023-01-19T20:45:00.484Z,-0.7
2023-01-19T21:00:00.602Z,-0.7
2023-01-19T21:15:00.479Z,-0.7
2023-01-19T21:30:00.515Z,-0.7
2023-01-19T21:45:00.511Z,-0.8
2023-01-19T22:00:00.611Z,-0.9
2023-01-19T22:15:00.491Z,-1.1
2023-01-19T22:30:00.479Z,-1.2
2023-01-19T22:45:00.481Z,-1.4
2023-01-19T23:00:00.502Z,-1.5
2023-01-19T23:15:00.468Z,-1.6
2023-01-19T23:30:00.487Z,-1.6
2023-01-19T23:45:00.477Z,-1.8
